createdAt,value
2023-02-15T00:00:40.256Z,99.99
2023-02-15T00:05:40.212Z,99.99
2023-02-15T00:10:40.192Z,99.99
2023-02-15T00:15:40.134Z,99.99
2023-02-15T00:20:40.035Z,99.99
2023-02-15T00:25:39.993Z,99.99
2023-02-15T00:30:40.114Z,99.99
2023-02-15T00:35:39.823Z,99.99
2023-02-15T00:40:39.822Z,99.99
2023-02-15T00:45:39.779Z,99.99
2023-02-15T00:50:39.777Z,99.99
2023-02-15T00:55:39.582Z,99.99
2023-02-15T01:00:39.508Z,99.99
2023-02-15T01:05:39.472Z,99.99
2023-02-15T01:10:39.374Z,99.99
2023-02-15T01:15:39.346Z,99.99
2023-02-15T01:20:39.318Z,99.99
2023-02-15T01:25:39.154Z,99.99
2023-02-15T01:30:39.144Z,99.99
2023-02-15T01:35:39.096Z,99.99
2023-02-15T01:40:39.047Z,99.99
2023-02-15T01:45:38.934Z,99.99
2023-02-15T01:50:38.885Z,99.99
2023-02-15T01:55:38.787Z,99.99
2023-02-15T02:00:38.793Z,99.99
2023-02-15T02:05:38.644Z,99.99
2023-02-15T02:10:38.669Z,99.99
2023-02-15T02:15:38.560Z,99.99
2023-02-15T02:20:38.488Z,99.99
2023-02-15T02:25:38.383Z,99.99
2023-02-15T02:30:38.599Z,99.99
2023-02-15T02:35:38.254Z,99.99
2023-02-15T02:40:38.229Z,99.99
2023-02-15T02:45:38.181Z,99.99
2023-02-15T02:50:38.069Z,99.99
2023-02-15T02:55:38.001Z,99.99
2023-02-15T03:00:37.969Z,99.99
2023-02-15T03:05:37.968Z,99.99
2023-02-15T03:10:37.858Z,99.99
2023-02-15T03:15:37.870Z,99.99
2023-02-15T03:20:37.849Z,99.99
2023-02-15T03:25:37.756Z,99.99
2023-02-15T03:30:37.636Z,99.99
2023-02-15T03:35:37.605Z,99.99
2023-02-15T03:40:37.636Z,99.99
2023-02-15T03:45:37.376Z,99.99
2023-02-15T03:50:37.370Z,99.99
2023-02-15T03:55:37.246Z,99.99
2023-02-15T04:00:37.190Z,99.99
2023-02-15T04:05:37.115Z,99.99
2023-02-15T04:10:37.066Z,99.99
2023-02-15T04:15:37.004Z,99.99
2023-02-15T04:20:36.898Z,99.99
2023-02-15T04:25:36.858Z,99.99
2023-02-15T04:30:36.820Z,99.99
2023-02-15T04:35:36.741Z,99.99
2023-02-15T04:40:36.716Z,99.99
2023-02-15T04:45:36.670Z,99.99
2023-02-15T04:50:36.522Z,99.99
2023-02-15T04:55:36.492Z,99.99
2023-02-15T05:00:36.431Z,99.99
2023-02-15T05:05:36.330Z,99.99
2023-02-15T05:10:36.326Z,99.99
2023-02-15T05:15:36.189Z,99.99
2023-02-15T05:20:36.147Z,99.99
2023-02-15T05:25:36.064Z,99.99
2023-02-15T05:30:36.117Z,99.99
2023-02-15T05:35:35.979Z,99.99
2023-02-15T05:40:35.872Z,99.99
2023-02-15T05:45:35.837Z,99.99
2023-02-15T05:50:35.788Z,99.99
2023-02-15T05:55:35.714Z,99.99
2023-02-15T06:00:38.011Z,99.99
2023-02-15T06:05:35.608Z,99.99
2023-02-15T06:10:35.496Z,99.99
2023-02-15T06:15:35.485Z,99.99
2023-02-15T06:20:35.378Z,99.99
2023-02-15T06:25:36.635Z,99.95
2023-02-15T06:30:35.280Z,99.74
2023-02-15T06:35:35.281Z,99.38
2023-02-15T06:40:35.118Z,98.96
2023-02-15T06:45:35.071Z,98.39
2023-02-15T06:50:35.003Z,98.29
2023-02-15T06:55:35.106Z,97.37
2023-02-15T07:00:35.514Z,96.18
2023-02-15T07:05:34.801Z,94.84
2023-02-15T07:10:34.763Z,92.26
2023-02-15T07:15:34.637Z,90.27
2023-02-15T07:20:36.629Z,87.49
2023-02-15T07:25:34.500Z,87.14
2023-02-15T07:30:34.630Z,85.75
2023-02-15T07:35:34.415Z,84.88
2023-02-15T07:40:34.377Z,84.22
2023-02-15T07:45:34.283Z,84.33
2023-02-15T07:50:34.253Z,82.05
2023-02-15T07:55:34.164Z,83.11
2023-02-15T08:00:34.056Z,81.70
2023-02-15T08:05:34.025Z,80.77
2023-02-15T08:10:33.966Z,81.19
2023-02-15T08:15:33.867Z,81.23
2023-02-15T08:20:33.816Z,80.63
2023-02-15T08:25:33.722Z,80.22
2023-02-15T08:30:36.136Z,79.94
2023-02-15T08:35:33.695Z,80.05
2023-02-15T08:40:33.544Z,80.88
2023-02-15T08:45:33.477Z,80.77
2023-02-15T08:50:33.422Z,79.98
2023-02-15T08:55:33.330Z,80.67
2023-02-15T09:00:33.286Z,79.94
2023-02-15T09:05:33.220Z,79.53
2023-02-15T09:10:33.154Z,79.53
2023-02-15T09:15:33.360Z,79.12
2023-02-15T09:20:33.186Z,79.60
2023-02-15T09:25:32.976Z,79.70
2023-02-15T09:30:33.036Z,78.36
2023-02-15T09:35:32.797Z,78.53
2023-02-15T09:40:32.770Z,78.01
2023-02-15T09:45:32.683Z,77.46
2023-02-15T09:50:32.627Z,77.56
2023-02-15T09:55:32.668Z,78.14
2023-02-15T10:00:32.496Z,77.84
2023-02-15T10:05:32.433Z,77.94
2023-02-15T10:10:32.378Z,77.84
2023-02-15T10:15:32.309Z,76.81
2023-02-15T10:20:32.229Z,77.18
2023-02-15T10:25:32.189Z,76.67
2023-02-15T10:30:32.656Z,77.28
2023-02-15T10:35:32.075Z,77.08
2023-02-15T10:40:31.990Z,77.04
2023-02-15T10:45:31.922Z,76.21
2023-02-15T10:50:31.846Z,76.12
2023-02-15T10:55:31.812Z,76.73
2023-02-15T11:00:31.716Z,75.26
2023-02-15T11:05:31.665Z,74.40
2023-02-15T11:10:31.605Z,74.91
2023-02-15T11:15:31.524Z,74.19
2023-02-15T11:20:31.476Z,74.50
2023-02-15T11:25:31.403Z,74.40
2023-02-15T11:30:31.376Z,74.71
2023-02-15T11:35:31.255Z,74.19
2023-02-15T11:40:31.190Z,73.85
2023-02-15T11:45:31.122Z,73.64
2023-02-15T11:50:31.048Z,73.23
2023-02-15T11:55:31.025Z,73.61
2023-02-15T12:00:30.934Z,72.88
2023-02-15T12:05:30.861Z,72.99
2023-02-15T12:10:30.785Z,73.06
2023-02-15T12:15:30.732Z,72.13
2023-02-15T12:20:30.674Z,71.96
2023-02-15T12:25:30.624Z,72.44
2023-02-15T12:30:30.605Z,71.10
2023-02-15T12:35:30.463Z,71.72
2023-02-15T12:40:31.716Z,71.14
2023-02-15T12:45:30.339Z,71.20
2023-02-15T12:50:34.558Z,70.38
2023-02-15T12:55:30.225Z,71.69
2023-02-15T13:00:30.196Z,69.94
2023-02-15T13:05:30.136Z,68.80
2023-02-15T13:10:30.068Z,69.32
2023-02-15T13:15:29.990Z,69.32
2023-02-15T13:20:29.873Z,71.48
2023-02-15T13:25:29.804Z,70.14
2023-02-15T13:30:29.810Z,69.53
2023-02-15T13:35:29.698Z,70.56
2023-02-15T13:40:29.668Z,69.53
2023-02-15T13:45:29.624Z,70.35
2023-02-15T13:50:29.487Z,69.63
2023-02-15T13:55:29.413Z,69.46
2023-02-15T14:00:29.511Z,69.87
2023-02-15T14:05:29.325Z,69.35
2023-02-15T14:10:29.263Z,69.97
2023-02-15T14:15:29.157Z,70.59
2023-02-15T14:20:29.091Z,70.28
2023-02-15T14:25:29.525Z,70.62
2023-02-15T14:30:29.308Z,71.14
2023-02-15T14:35:28.901Z,71.06
2023-02-15T14:40:29.077Z,72.13
2023-02-15T14:45:28.803Z,71.61
2023-02-15T14:50:28.999Z,72.27
2023-02-15T14:55:28.841Z,72.67
2023-02-15T15:00:28.713Z,73.71
2023-02-15T15:05:28.543Z,77.01
2023-02-15T15:10:28.463Z,72.96
2023-02-15T15:15:28.523Z,73.50
2023-02-15T15:20:28.328Z,73.85
2023-02-15T15:25:28.304Z,73.98
2023-02-15T15:30:28.219Z,75.26
2023-02-15T15:35:28.203Z,75.70
2023-02-15T15:40:28.066Z,77.25
2023-02-15T15:45:28.014Z,76.70
2023-02-15T15:50:27.991Z,77.77
2023-02-15T15:55:28.365Z,78.53
2023-02-15T16:00:27.755Z,79.19
2023-02-15T16:05:27.727Z,79.60
2023-02-15T16:10:27.741Z,80.16
2023-02-15T16:15:28.614Z,81.23
2023-02-15T16:20:27.595Z,82.20
2023-02-15T16:25:27.579Z,82.86
2023-02-15T16:30:27.633Z,83.69
2023-02-15T16:35:27.430Z,84.05
2023-02-15T16:40:27.258Z,84.81
2023-02-15T16:45:27.286Z,85.57
2023-02-15T16:50:27.120Z,85.88
2023-02-15T16:55:27.143Z,86.41
2023-02-15T17:00:27.088Z,86.76
2023-02-15T17:05:26.947Z,86.86
2023-02-15T17:10:27.022Z,87.48
2023-02-15T17:15:26.828Z,87.73
2023-02-15T17:20:26.886Z,87.84
2023-02-15T17:25:26.739Z,91.58
2023-02-15T17:30:26.671Z,87.84
2023-02-15T17:35:26.563Z,88.81
2023-02-15T17:40:26.513Z,88.50
2023-02-15T17:45:26.485Z,89.12
2023-02-15T17:50:26.462Z,89.33
2023-02-15T17:55:26.339Z,89.95
2023-02-15T18:00:26.296Z,89.58
2023-02-15T18:05:26.194Z,90.62
2023-02-15T18:10:26.265Z,90.20
2023-02-15T18:15:26.171Z,89.89
2023-02-15T18:20:26.226Z,90.20
2023-02-15T18:25:25.903Z,92.80
2023-02-15T18:30:26.014Z,91.04
2023-02-15T18:35:25.762Z,90.35
2023-02-15T18:40:25.811Z,91.28
2023-02-15T18:45:25.647Z,91.39
2023-02-15T18:50:25.603Z,90.97
2023-02-15T18:55:25.526Z,91.18
2023-02-15T19:00:25.565Z,91.18
2023-02-15T19:05:25.412Z,91.28
2023-02-15T19:10:25.376Z,91.71
2023-02-15T19:15:25.318Z,91.53
2023-02-15T19:20:25.198Z,91.75
2023-02-15T19:25:25.304Z,91.75
2023-02-15T19:30:25.372Z,91.53
2023-02-15T19:35:25.242Z,91.85
2023-02-15T19:40:25.038Z,92.06
2023-02-15T19:45:24.962Z,91.85
2023-02-15T19:50:24.874Z,92.10
2023-02-15T19:55:24.773Z,92.10
2023-02-15T20:00:24.684Z,92.31
2023-02-15T20:05:24.803Z,92.52
2023-02-15T20:10:24.585Z,92.31
2023-02-15T20:15:24.572Z,92.41
2023-02-15T20:20:24.483Z,92.10
2023-02-15T20:25:24.376Z,92.21
2023-02-15T20:30:24.390Z,92.10
2023-02-15T20:35:24.337Z,92.10
2023-02-15T20:40:24.426Z,92.31
2023-02-15T20:45:24.144Z,92.10
2023-02-15T20:50:24.191Z,92.10
2023-02-15T20:55:24.076Z,91.89
2023-02-15T21:00:23.952Z,92.00
2023-02-15T21:05:23.874Z,92.00
2023-02-15T21:10:23.814Z,91.93
2023-02-15T21:15:23.772Z,92.14
2023-02-15T21:20:23.685Z,91.78
2023-02-15T21:25:23.653Z,91.47
2023-02-15T21:30:23.757Z,91.16
2023-02-15T21:35:23.610Z,91.16
2023-02-15T21:40:23.452Z,91.27
2023-02-15T21:45:23.446Z,91.27
2023-02-15T21:50:23.292Z,91.27
2023-02-15T21:55:23.252Z,91.41
2023-02-15T22:00:23.335Z,91.83
2023-02-15T22:05:23.115Z,91.52
2023-02-15T22:10:23.105Z,91.62
2023-02-15T22:15:22.991Z,91.72
2023-02-15T22:20:22.930Z,91.83
2023-02-15T22:25:22.845Z,91.83
2023-02-15T22:30:22.817Z,91.83
2023-02-15T22:35:22.760Z,91.83
2023-02-15T22:40:22.711Z,92.14
2023-02-15T22:45:22.585Z,91.83
2023-02-15T22:50:22.579Z,91.83
2023-02-15T22:55:22.494Z,92.03
2023-02-15T23:00:22.420Z,92.25
2023-02-15T23:05:22.483Z,92.25
2023-02-15T23:10:22.351Z,92.35
2023-02-15T23:15:22.288Z,92.46
2023-02-15T23:20:22.159Z,92.50
2023-02-15T23:25:22.152Z,92.46
2023-02-15T23:30:22.095Z,92.60
2023-02-15T23:35:21.936Z,92.91
2023-02-15T23:40:21.878Z,92.91
2023-02-15T23:45:21.807Z,92.81
2023-02-15T23:50:21.784Z,93.33
2023-02-15T23:55:21.724Z,93.44
